Time;durP1;ratioP1;P1;durP2;ratioP2;P2;SDS_P1;SDS_P2;PMS_P1;PMS_P2;Temp;Humidity;BMP_temperature;BMP_pressure;BME280_temperature;BME280_humidity;BME280_pressure;Samples;Min_cycle;Max_cycle;Signal;HPM_P1;HPM_P2
2024/03/13 00:01:43;;;;;;;1.95;1.10;;;8.70;99.90;;;;;;4993592;28;20057;-78
2024/03/13 00:04:09;;;;;;;3.13;1.00;;;8.60;99.90;;;;;;4994365;28;20066;-79
2024/03/13 00:06:36;;;;;;;1.58;1.33;;;8.70;99.90;;;;;;4976899;28;20030;-79
2024/03/13 00:09:03;;;;;;;2.63;1.10;;;8.60;99.90;;;;;;4994225;28;20022;-79
2024/03/13 00:11:29;;;;;;;1.50;1.02;;;8.60;99.90;;;;;;4976928;28;20460;-79
2024/03/13 00:13:55;;;;;;;1.45;0.95;;;8.60;99.90;;;;;;4976277;28;20073;-79
2024/03/13 00:16:21;;;;;;;2.70;0.90;;;8.60;99.90;;;;;;4994335;28;20034;-79
2024/03/13 00:18:47;;;;;;;2.60;1.25;;;8.70;99.90;;;;;;4993689;28;20026;-79
2024/03/13 00:21:12;;;;;;;1.85;1.27;;;8.70;99.90;;;;;;4994020;28;20037;-79
2024/03/13 00:23:38;;;;;;;1.65;1.02;;;8.70;99.90;;;;;;4975930;28;20027;-80
2024/03/13 00:26:04;;;;;;;1.10;0.90;;;8.70;99.90;;;;;;4993988;28;20026;-79
2024/03/13 00:28:31;;;;;;;1.40;0.93;;;8.70;99.90;;;;;;4976663;28;20033;-78
2024/03/13 00:30:58;;;;;;;2.53;1.00;;;8.70;99.90;;;;;;4993511;28;20204;-78
2024/03/13 00:33:25;;;;;;;2.03;1.27;;;8.60;99.90;;;;;;4976724;28;20038;-80
2024/03/13 00:35:54;;;;;;;1.58;0.93;;;8.70;99.90;;;;;;4993611;28;20395;-80
2024/03/13 00:38:20;;;;;;;1.23;0.82;;;8.70;99.90;;;;;;4976111;28;20030;-79
2024/03/13 00:40:48;;;;;;;1.75;1.00;;;8.60;99.90;;;;;;4976034;28;20033;-81
2024/03/13 00:43:14;;;;;;;1.60;1.05;;;8.60;99.90;;;;;;4976700;28;20556;-80
2024/03/13 00:45:39;;;;;;;2.00;1.10;;;8.60;99.90;;;;;;4993087;28;20091;-80
2024/03/13 00:48:05;;;;;;;3.17;1.98;;;8.60;99.90;;;;;;4996959;28;20050;-80
2024/03/13 00:50:31;;;;;;;1.25;0.90;;;8.60;99.90;;;;;;4997484;28;20088;-80
2024/03/13 00:52:56;;;;;;;3.92;1.20;;;8.60;99.90;;;;;;4997047;28;20463;-80
2024/03/13 00:55:23;;;;;;;1.80;0.93;;;8.70;99.90;;;;;;4980244;28;20033;-80
2024/03/13 00:57:49;;;;;;;1.73;1.10;;;8.60;99.90;;;;;;4979751;28;20384;-80
2024/03/13 01:00:18;;;;;;;1.83;0.90;;;8.60;99.90;;;;;;4980442;28;20026;-80
2024/03/13 01:02:45;;;;;;;1.38;1.02;;;8.60;99.90;;;;;;4979561;28;20123;-81
2024/03/13 01:05:13;;;;;;;1.63;0.82;;;8.60;99.90;;;;;;4980115;28;20061;-80
2024/03/13 01:07:40;;;;;;;2.53;1.08;;;8.70;99.90;;;;;;4980135;28;20030;-80
2024/03/13 01:10:07;;;;;;;1.63;1.00;;;8.70;99.90;;;;;;4997346;28;20371;-79
2024/03/13 01:12:34;;;;;;;1.20;1.02;;;8.70;99.90;;;;;;4980033;28;20034;-79
2024/03/13 01:15:00;;;;;;;2.45;1.13;;;8.70;99.90;;;;;;4996908;28;20224;-80
2024/03/13 01:17:25;;;;;;;1.60;1.10;;;8.70;99.90;;;;;;4997207;28;20424;-79
2024/03/13 01:19:52;;;;;;;1.33;1.20;;;8.80;99.90;;;;;;4979360;28;20470;-80
2024/03/13 01:22:18;;;;;;;3.67;1.15;;;8.70;99.90;;;;;;4997140;28;20030;-79
2024/03/13 01:24:45;;;;;;;1.83;1.02;;;8.70;99.90;;;;;;4979408;28;20031;-80
2024/03/13 01:27:11;;;;;;;1.55;0.95;;;8.70;99.90;;;;;;4979809;28;20029;-79
2024/03/13 01:29:38;;;;;;;2.58;0.90;;;8.70;99.90;;;;;;4979515;28;20027;-79
2024/03/13 01:32:04;;;;;;;1.67;1.08;;;8.70;99.90;;;;;;4996449;28;20173;-79
2024/03/13 01:34:30;;;;;;;3.33;1.25;;;8.70;99.90;;;;;;4979230;28;20046;-79
2024/03/13 01:39:49;;;;;;;1.90;1.17;;;8.70;99.90;;;;;;4980670;28;20034;-80
2024/03/13 01:56:25;;;;;;;2.40;1.77;;;8.80;99.90;;;;;;4996615;28;20088;-81
2024/03/13 01:59:19;;;;;;;2.85;1.45;;;8.70;99.90;;;;;;4977940;28;20109;-81
2024/03/13 02:04:30;;;;;;;1.30;1.15;;;8.70;99.90;;;;;;4996533;28;20436;-78
2024/03/13 02:06:56;;;;;;;2.47;1.27;;;8.70;99.90;;;;;;4978300;28;20035;-78
2024/03/13 02:09:23;;;;;;;1.83;1.58;;;8.70;99.90;;;;;;4978607;28;20049;-78
2024/03/13 02:11:49;;;;;;;1.15;1.05;;;8.70;99.90;;;;;;4978294;28;20038;-79
2024/03/13 02:14:15;;;;;;;1.65;0.93;;;8.70;99.90;;;;;;4978717;28;20029;-78
2024/03/13 02:16:41;;;;;;;1.73;1.13;;;8.60;99.90;;;;;;4991696;28;20030;-79
2024/03/13 02:19:07;;;;;;;3.45;1.17;;;8.60;99.90;;;;;;4995522;28;20058;-78
2024/03/13 02:21:34;;;;;;;2.20;1.13;;;8.60;99.90;;;;;;4995982;28;20109;-78
2024/03/13 02:23:59;;;;;;;3.00;1.30;;;8.60;99.90;;;;;;4994107;28;20034;-79
2024/03/13 02:26:25;;;;;;;1.70;1.48;;;8.60;99.90;;;;;;4995731;28;20026;-79
2024/03/13 02:28:51;;;;;;;1.67;1.20;;;8.60;99.90;;;;;;4994560;28;20026;-81
2024/03/13 02:31:17;;;;;;;3.08;1.23;;;8.60;99.90;;;;;;4995370;28;20037;-80
2024/03/13 02:33:43;;;;;;;1.52;1.00;;;8.60;99.90;;;;;;4994731;28;20034;-80
2024/03/13 02:36:09;;;;;;;1.45;0.98;;;8.60;99.90;;;;;;4994273;28;20042;-81
2024/03/13 02:38:34;;;;;;;1.35;1.05;;;8.60;99.90;;;;;;4995911;28;20032;-81
2024/03/13 02:41:00;;;;;;;2.25;1.10;;;8.60;99.90;;;;;;4994323;28;20026;-80
2024/03/13 02:43:26;;;;;;;1.98;1.00;;;8.60;99.90;;;;;;4994573;28;20062;-79
2024/03/13 02:45:52;;;;;;;2.53;1.00;;;8.60;99.90;;;;;;4993854;28;20121;-79
2024/03/13 02:48:17;;;;;;;0.90;0.80;;;8.60;99.90;;;;;;4994339;28;20030;-79
2024/03/13 02:50:46;;;;;;;1.23;0.80;;;8.60;99.90;;;;;;4995433;28;20034;-80
2024/03/13 02:53:12;;;;;;;1.38;0.90;;;8.60;99.90;;;;;;4994533;28;20034;-78
2024/03/13 02:55:39;;;;;;;1.42;0.70;;;8.60;99.90;;;;;;4993790;28;20081;-76
2024/03/13 02:58:05;;;;;;;1.40;1.00;;;8.60;99.90;;;;;;4993200;28;20034;-79
2024/03/13 03:00:31;;;;;;;1.48;0.93;;;8.60;99.90;;;;;;4994007;28;20054;-78
2024/03/13 03:02:57;;;;;;;1.20;0.90;;;8.60;99.90;;;;;;4993412;28;20460;-79
2024/03/13 03:05:25;;;;;;;0.85;0.82;;;8.50;99.90;;;;;;4993939;28;20058;-79
2024/03/13 03:07:51;;;;;;;2.30;0.80;;;8.60;99.90;;;;;;4993391;28;20049;-79
2024/03/13 03:10:17;;;;;;;1.45;1.13;;;8.60;99.90;;;;;;4994064;28;20456;-79
2024/03/13 03:12:43;;;;;;;1.77;0.82;;;8.60;99.90;;;;;;4993817;28;20046;-79
2024/03/13 03:15:10;;;;;;;1.83;1.10;;;8.60;99.90;;;;;;4993066;28;20022;-79
2024/03/13 03:17:36;;;;;;;1.05;0.85;;;8.60;99.90;;;;;;4994754;28;20061;-79
2024/03/13 03:20:01;;;;;;;1.15;0.90;;;8.60;99.90;;;;;;4993383;28;20050;-79
2024/03/13 03:22:27;;;;;;;0.68;0.60;;;8.60;99.90;;;;;;4993687;28;20033;-79
2024/03/13 03:24:55;;;;;;;1.55;0.80;;;8.70;99.90;;;;;;4993208;28;20120;-79
2024/03/13 03:27:21;;;;;;;1.33;0.90;;;8.60;99.90;;;;;;4994009;28;20029;-81
2024/03/13 03:29:47;;;;;;;1.25;0.90;;;8.70;99.90;;;;;;4994929;28;20113;-81
2024/03/13 03:32:12;;;;;;;1.27;0.70;;;8.70;99.90;;;;;;4993504;28;20542;-81
2024/03/13 03:34:39;;;;;;;1.77;0.93;;;8.70;99.90;;;;;;4993334;28;20050;-81
2024/03/13 03:37:05;;;;;;;0.85;0.70;;;8.70;99.90;;;;;;4993339;28;20076;-81
2024/03/13 03:39:34;;;;;;;1.65;1.00;;;8.70;99.90;;;;;;4993775;28;20030;-80
2024/03/13 03:42:03;;;;;;;1.30;0.93;;;8.70;99.90;;;;;;4993180;28;20038;-81
2024/03/13 03:44:29;;;;;;;1.27;1.08;;;8.70;99.90;;;;;;4993412;28;20030;-79
2024/03/13 03:46:55;;;;;;;1.15;0.80;;;8.70;99.90;;;;;;4993094;28;20121;-79
2024/03/13 03:49:22;;;;;;;1.05;0.82;;;8.80;99.90;;;;;;4994635;28;20027;-80
2024/03/13 03:51:49;;;;;;;2.20;0.82;;;8.70;99.90;;;;;;4994373;28;20120;-79
2024/03/13 03:54:14;;;;;;;0.82;0.60;;;8.70;99.90;;;;;;4992710;28;20030;-79
2024/03/13 03:56:40;;;;;;;1.77;0.80;;;8.80;99.90;;;;;;4993044;28;20464;-79
2024/03/13 03:59:07;;;;;;;2.10;1.00;;;8.70;99.90;;;;;;4994060;28;20056;-82
2024/03/13 04:01:34;;;;;;;2.35;0.85;;;8.80;99.90;;;;;;4993660;28;20031;-82
2024/03/13 04:04:00;;;;;;;1.90;0.90;;;8.80;99.90;;;;;;4993129;28;20387;-82
2024/03/13 04:06:26;;;;;;;1.45;0.80;;;8.70;99.90;;;;;;4993682;28;20030;-82
2024/03/13 04:08:51;;;;;;;1.33;0.90;;;8.70;99.90;;;;;;4993962;28;20026;-82
2024/03/13 04:11:19;;;;;;;1.70;0.82;;;8.70;99.90;;;;;;4993710;28;20387;-81
2024/03/13 04:13:46;;;;;;;1.63;1.08;;;8.80;99.90;;;;;;4993516;28;20069;-80
2024/03/13 04:16:13;;;;;;;1.67;1.15;;;8.80;99.90;;;;;;4994036;28;20112;-80
2024/03/13 04:18:39;;;;;;;1.30;0.90;;;8.80;99.90;;;;;;4993890;28;20077;-80
2024/03/13 04:21:05;;;;;;;1.85;1.17;;;8.80;99.90;;;;;;4993384;28;20100;-79
2024/03/13 04:23:31;;;;;;;1.20;1.00;;;8.80;99.90;;;;;;4997660;28;20145;-79
2024/03/13 04:25:56;;;;;;;1.33;0.88;;;8.80;99.90;;;;;;4997328;28;20033;-79
2024/03/13 04:28:22;;;;;;;1.73;1.00;;;8.80;99.90;;;;;;4998559;28;20026;-79
2024/03/13 04:30:48;;;;;;;1.58;1.00;;;8.80;99.90;;;;;;4998372;28;20029;-79
2024/03/13 04:33:16;;;;;;;1.15;0.90;;;8.80;99.90;;;;;;4996720;28;20042;-75
2024/03/13 04:35:43;;;;;;;1.02;0.88;;;8.90;99.90;;;;;;4998380;28;20050;-77
2024/03/13 04:38:09;;;;;;;2.33;0.93;;;8.90;99.90;;;;;;4997719;28;20027;-78
2024/03/13 04:40:38;;;;;;;1.80;1.10;;;8.80;99.90;;;;;;4997894;28;20022;-77
2024/03/13 04:43:05;;;;;;;1.40;1.10;;;8.80;99.90;;;;;;4997561;28;20026;-77
2024/03/13 04:45:31;;;;;;;1.80;1.10;;;8.80;99.90;;;;;;4997782;28;20065;-77
2024/03/13 04:47:57;;;;;;;1.50;0.95;;;8.90;99.90;;;;;;4996612;28;20026;-78
2024/03/13 04:50:23;;;;;;;3.05;1.15;;;8.80;99.90;;;;;;4997439;28;20033;-78
2024/03/13 04:52:48;;;;;;;1.60;0.82;;;8.80;99.90;;;;;;4996847;28;20507;-78
2024/03/13 04:55:14;;;;;;;1.80;1.10;;;8.80;99.90;;;;;;4996124;28;20172;-76
2024/03/13 04:57:40;;;;;;;1.17;0.90;;;8.90;99.90;;;;;;4997515;28;20082;-76
2024/03/13 05:00:07;;;;;;;1.55;0.93;;;8.90;99.90;;;;;;4996273;28;20085;-76
2024/03/13 05:02:32;;;;;;;1.98;0.85;;;8.90;99.90;;;;;;4996653;28;20033;-76
2024/03/13 05:04:58;;;;;;;1.85;1.00;;;8.90;99.90;;;;;;4996661;28;20030;-77
2024/03/13 05:07:24;;;;;;;1.30;1.02;;;8.90;99.90;;;;;;4980348;28;20035;-76
2024/03/13 05:09:51;;;;;;;1.00;0.90;;;8.90;99.90;;;;;;4980235;28;20459;-79
2024/03/13 05:12:17;;;;;;;1.70;1.00;;;8.90;99.90;;;;;;4980152;28;20038;-76
2024/03/13 05:14:42;;;;;;;2.88;1.55;;;8.90;99.90;;;;;;4980516;28;20428;-76
2024/03/13 05:17:09;;;;;;;1.58;1.00;;;8.90;99.90;;;;;;4979365;28;20050;-77
2024/03/13 05:19:35;;;;;;;1.55;1.02;;;8.90;99.90;;;;;;4996926;28;20033;-76
2024/03/13 05:22:01;;;;;;;1.63;1.00;;;8.90;99.90;;;;;;4979166;28;20125;-77
2024/03/13 05:24:29;;;;;;;1.52;1.10;;;8.90;99.90;;;;;;4997197;28;20105;-77
2024/03/13 05:26:54;;;;;;;2.13;1.13;;;8.90;99.90;;;;;;4979645;28;20035;-76
2024/03/13 05:29:20;;;;;;;1.95;1.20;;;8.90;99.90;;;;;;4997395;28;20117;-77
2024/03/13 05:31:49;;;;;;;1.38;1.02;;;8.90;99.90;;;;;;4996934;28;20034;-76
2024/03/13 05:34:16;;;;;;;1.40;1.23;;;9.00;99.90;;;;;;4977859;28;20463;-76
2024/03/13 05:36:42;;;;;;;2.95;1.20;;;9.00;99.90;;;;;;4996979;28;20054;-78
2024/03/13 05:39:12;;;;;;;2.08;1.00;;;9.00;99.90;;;;;;4979386;28;20116;-77
2024/03/13 05:41:38;;;;;;;1.65;1.20;;;9.00;99.90;;;;;;4996743;28;20030;-76
2024/03/13 05:44:04;;;;;;;1.42;1.20;;;8.90;99.90;;;;;;4978631;28;20027;-76
2024/03/13 05:46:30;;;;;;;1.33;1.17;;;9.00;99.90;;;;;;4979393;28;20033;-76
2024/03/13 05:48:55;;;;;;;4.10;1.25;;;9.00;99.90;;;;;;4979695;28;20034;-77
2024/03/13 05:51:22;;;;;;;3.22;1.33;;;9.00;99.90;;;;;;4979563;28;20022;-77
2024/03/13 05:53:49;;;;;;;2.65;1.58;;;9.00;99.90;;;;;;4979414;28;20037;-77
2024/03/13 05:56:14;;;;;;;2.15;1.58;;;9.00;99.90;;;;;;4978599;28;20030;-77
2024/03/13 05:58:41;;;;;;;2.85;1.48;;;9.00;99.90;;;;;;4996396;28;20101;-77
2024/03/13 06:01:11;;;;;;;1.95;1.42;;;9.10;99.90;;;;;;4978625;28;20444;-77
2024/03/13 06:03:36;;;;;;;2.63;1.80;;;9.10;99.90;;;;;;4978820;28;20033;-77
2024/03/13 06:06:02;;;;;;;2.30;1.52;;;9.10;99.90;;;;;;4978756;28;20038;-79
2024/03/13 06:08:30;;;;;;;3.38;1.95;;;9.10;99.90;;;;;;4996453;28;20396;-78
2024/03/13 06:10:56;;;;;;;3.88;1.95;;;9.10;99.90;;;;;;4978891;28;20053;-78
2024/03/13 06:13:21;;;;;;;2.72;1.90;;;9.10;99.90;;;;;;4978446;28;20073;-78
2024/03/13 06:15:47;;;;;;;3.10;1.65;;;9.10;99.90;;;;;;4996065;28;20106;-78
2024/03/13 06:18:13;;;;;;;3.72;2.15;;;9.10;99.90;;;;;;4995358;28;20084;-78
2024/03/13 06:20:38;;;;;;;2.72;1.90;;;9.10;99.90;;;;;;4996020;28;20418;-78
2024/03/13 06:23:05;;;;;;;2.72;2.10;;;9.20;99.90;;;;;;4978289;28;20037;-78
2024/03/13 06:25:38;;;;;;;3.97;2.53;;;9.20;99.90;;;;;;4978594;28;20121;-78
2024/03/13 06:29:56;;;;;;;3.17;2.00;;;9.20;99.90;;;;;;4978349;28;20234;-79
2024/03/13 06:30:51;;;;;;;3.08;1.98;;;9.20;99.90;;;;;;4994971;28;20077;-78
2024/03/13 06:33:17;;;;;;;4.00;2.20;;;9.20;99.90;;;;;;4977918;28;20051;-78
2024/03/13 06:35:43;;;;;;;2.63;1.73;;;9.20;99.90;;;;;;4977806;28;20054;-79
2024/03/13 06:38:08;;;;;;;3.50;2.40;;;9.20;99.90;;;;;;4977878;28;20510;-78
2024/03/13 06:40:34;;;;;;;4.95;2.20;;;9.20;99.90;;;;;;4978327;28;20348;-79
2024/03/13 06:42:59;;;;;;;3.65;2.28;;;9.30;99.90;;;;;;4978260;28;20018;-82
2024/03/13 06:45:25;;;;;;;3.50;2.30;;;9.30;99.90;;;;;;4978287;28;20027;-79
2024/03/13 06:47:51;;;;;;;3.13;2.05;;;9.30;99.90;;;;;;4985483;28;20026;-77
2024/03/13 06:50:17;;;;;;;5.38;2.63;;;9.30;99.90;;;;;;4995380;28;20029;-78
2024/03/13 06:52:43;;;;;;;3.97;2.20;;;9.40;99.90;;;;;;4977441;28;20153;-78
2024/03/13 06:55:09;;;;;;;3.78;2.40;;;9.40;99.90;;;;;;4976140;28;20375;-77
2024/03/13 06:57:35;;;;;;;3.70;2.20;;;9.40;99.90;;;;;;4994683;28;20030;-78
2024/03/13 07:00:00;;;;;;;2.72;1.83;;;9.40;99.90;;;;;;4994176;28;20101;-85
2024/03/13 07:02:28;;;;;;;4.88;2.10;;;9.40;99.90;;;;;;4977399;28;20080;-80
2024/03/13 07:04:54;;;;;;;2.55;2.00;;;9.50;99.90;;;;;;4994611;28;20191;-79
2024/03/13 07:07:19;;;;;;;3.53;2.20;;;9.40;99.90;;;;;;4994454;28;20074;-77
2024/03/13 07:09:45;;;;;;;3.42;2.22;;;9.40;99.90;;;;;;4978060;28;20018;-78
2024/03/13 07:12:13;;;;;;;4.18;2.08;;;9.50;99.90;;;;;;4977451;28;20026;-79
2024/03/13 07:14:39;;;;;;;4.03;2.25;;;9.50;99.90;;;;;;4978188;28;20019;-79
2024/03/13 07:17:04;;;;;;;2.20;1.88;;;9.50;99.90;;;;;;4977487;28;20036;-79
2024/03/13 07:19:31;;;;;;;2.72;2.08;;;9.50;99.90;;;;;;4977877;28;20023;-78
2024/03/13 07:21:57;;;;;;;3.20;2.10;;;9.60;99.90;;;;;;4977680;28;20101;-78
2024/03/13 07:24:22;;;;;;;3.30;2.15;;;9.60;99.90;;;;;;4977405;28;20411;-78
2024/03/13 07:26:48;;;;;;;2.95;2.15;;;9.60;99.90;;;;;;4977657;28;20058;-78
2024/03/13 07:29:14;;;;;;;3.13;2.40;;;9.60;99.90;;;;;;4977114;28;20037;-78
2024/03/13 07:31:39;;;;;;;3.00;2.00;;;9.60;99.90;;;;;;4994809;28;20030;-78
2024/03/13 07:34:07;;;;;;;3.83;2.60;;;9.70;99.90;;;;;;4976551;28;20054;-78
2024/03/13 07:36:33;;;;;;;3.38;2.20;;;9.70;99.90;;;;;;4977306;28;20026;-80
2024/03/13 07:38:59;;;;;;;3.03;2.20;;;9.70;99.90;;;;;;4977289;28;20026;-78
2024/03/13 07:41:24;;;;;;;2.63;1.92;;;9.80;99.90;;;;;;4976625;28;20466;-78
2024/03/13 07:43:50;;;;;;;3.13;1.92;;;9.80;99.90;;;;;;4994631;28;20030;-78
2024/03/13 07:46:15;;;;;;;4.15;1.83;;;9.80;99.90;;;;;;4994078;28;20061;-79
2024/03/13 07:48:42;;;;;;;3.58;1.60;;;9.80;99.90;;;;;;4977172;28;20018;-78
2024/03/13 07:51:08;;;;;;;2.67;1.80;;;9.90;99.90;;;;;;4976802;28;20022;-79
2024/03/13 07:53:34;;;;;;;3.22;2.38;;;9.90;99.90;;;;;;4977510;28;20478;-78
2024/03/13 07:55:59;;;;;;;2.80;1.95;;;9.90;99.90;;;;;;4976489;28;20470;-78
2024/03/13 07:58:25;;;;;;;2.35;1.67;;;9.90;99.90;;;;;;4976432;28;20022;-78
2024/03/13 08:00:52;;;;;;;2.40;1.70;;;9.90;99.90;;;;;;4977050;28;20117;-78
2024/03/13 08:03:17;;;;;;;3.30;1.48;;;9.90;99.90;;;;;;4993528;28;20034;-78
2024/03/13 08:05:44;;;;;;;3.33;1.88;;;9.90;99.90;;;;;;4976914;28;20401;-78
2024/03/13 08:08:10;;;;;;;2.55;1.90;;;10.00;99.90;;;;;;4993729;28;20061;-78
2024/03/13 08:10:37;;;;;;;3.28;1.80;;;10.00;99.90;;;;;;4976741;28;20050;-78
2024/03/13 08:13:04;;;;;;;2.97;1.63;;;10.10;99.90;;;;;;4994259;28;20033;-78
2024/03/13 08:15:29;;;;;;;2.10;1.60;;;10.10;99.90;;;;;;4993946;28;20371;-78
2024/03/13 08:17:58;;;;;;;3.20;1.58;;;10.10;99.90;;;;;;4977246;28;20453;-78
2024/03/13 08:20:24;;;;;;;1.70;1.25;;;10.20;99.90;;;;;;4993673;28;20030;-79
2024/03/13 08:22:50;;;;;;;1.98;1.65;;;10.20;99.90;;;;;;4976935;28;20448;-78
2024/03/13 08:25:19;;;;;;;4.53;1.40;;;10.20;99.90;;;;;;4993616;28;20029;-79
2024/03/13 08:27:51;;;;;;;1.75;1.30;;;10.20;99.90;;;;;;4993826;28;20022;-79
2024/03/13 08:30:18;;;;;;;1.77;1.27;;;10.20;99.90;;;;;;4976515;28;20045;-79
2024/03/13 08:32:44;;;;;;;1.70;1.40;;;10.20;99.90;;;;;;4994059;28;20030;-79
2024/03/13 08:35:10;;;;;;;2.67;1.33;;;10.20;99.90;;;;;;4975950;28;20048;-80
2024/03/13 08:37:36;;;;;;;2.90;1.45;;;10.20;99.90;;;;;;4977219;28;20027;-79
2024/03/13 08:40:07;;;;;;;3.58;1.70;;;10.30;99.90;;;;;;4994134;28;20089;-79
2024/03/13 08:42:34;;;;;;;2.73;1.70;;;10.30;99.90;;;;;;4994094;28;20022;-79
2024/03/13 08:45:01;;;;;;;2.42;1.58;;;10.30;99.90;;;;;;4976541;28;20284;-79
2024/03/13 08:47:29;;;;;;;3.00;2.10;;;10.30;99.90;;;;;;4976081;28;20053;-78
2024/03/13 08:49:55;;;;;;;2.25;1.63;;;10.30;99.90;;;;;;4994276;28;20029;-79
2024/03/13 08:52:21;;;;;;;1.90;1.58;;;10.40;99.90;;;;;;4976382;28;20105;-79
2024/03/13 08:54:48;;;;;;;2.53;1.73;;;10.40;99.90;;;;;;4994102;28;20443;-78
2024/03/13 08:57:13;;;;;;;3.78;1.90;;;10.40;99.90;;;;;;4976026;28;20018;-79
2024/03/13 08:59:42;;;;;;;2.60;1.90;;;10.40;99.90;;;;;;4993881;28;20081;-79
2024/03/13 09:02:09;;;;;;;2.28;1.77;;;10.50;99.90;;;;;;4976683;28;20037;-83
2024/03/13 09:04:34;;;;;;;2.30;1.75;;;10.50;99.90;;;;;;4976852;28;20097;-78
2024/03/13 09:07:03;;;;;;;2.50;1.70;;;10.60;99.90;;;;;;4976917;28;20482;-78
2024/03/13 09:09:29;;;;;;;2.38;1.75;;;10.60;99.90;;;;;;4979927;28;20081;-79
2024/03/13 09:11:55;;;;;;;2.63;1.80;;;10.70;99.90;;;;;;4997393;28;20034;-78
2024/03/13 09:14:23;;;;;;;2.33;1.80;;;10.70;99.90;;;;;;4979783;28;20025;-79
2024/03/13 09:16:52;;;;;;;2.45;1.90;;;10.70;99.90;;;;;;4980118;28;20026;-79
2024/03/13 09:19:18;;;;;;;2.35;1.80;;;10.80;99.90;;;;;;4979524;28;20022;-79
2024/03/13 09:21:47;;;;;;;3.40;2.08;;;10.80;99.90;;;;;;4997148;28;20114;-79
2024/03/13 09:24:15;;;;;;;2.15;1.58;;;10.80;99.90;;;;;;4979589;28;20086;-79
2024/03/13 09:26:40;;;;;;;2.53;1.80;;;10.90;99.90;;;;;;4997250;28;20073;-78
2024/03/13 09:29:06;;;;;;;2.00;1.80;;;10.90;99.90;;;;;;4979520;28;20018;-79
2024/03/13 09:31:37;;;;;;;2.40;1.70;;;11.00;99.90;;;;;;4979325;28;20030;-78
2024/03/13 09:34:03;;;;;;;2.63;1.48;;;10.90;99.90;;;;;;4979342;28;20081;-79
2024/03/13 09:36:28;;;;;;;3.25;2.30;;;10.90;99.90;;;;;;4979440;28;20276;-79
2024/03/13 09:38:54;;;;;;;3.85;1.70;;;10.90;99.90;;;;;;4979766;28;20506;-79
2024/03/13 09:41:20;;;;;;;2.38;1.90;;;10.90;99.90;;;;;;4979308;28;20030;-78
2024/03/13 09:43:46;;;;;;;2.58;1.88;;;11.00;99.90;;;;;;4979568;28;20026;-78
2024/03/13 09:46:14;;;;;;;3.40;1.67;;;11.10;99.90;;;;;;4979043;28;20033;-80
2024/03/13 09:48:42;;;;;;;2.30;1.60;;;11.20;99.90;;;;;;4980434;28;20033;-78
2024/03/13 09:51:08;;;;;;;1.90;1.42;;;11.30;99.90;;;;;;4996930;28;20023;-78
2024/03/13 09:53:36;;;;;;;2.22;1.60;;;11.30;99.90;;;;;;4996389;28;20460;-78
2024/03/13 09:56:02;;;;;;;2.10;1.60;;;11.30;99.90;;;;;;4996778;28;20022;-79
2024/03/13 09:58:28;;;;;;;1.80;1.60;;;11.40;99.90;;;;;;4978669;28;20414;-78
2024/03/13 10:00:57;;;;;;;3.15;2.00;;;11.40;99.90;;;;;;4979438;28;20050;-78
2024/03/13 10:03:25;;;;;;;1.58;1.45;;;11.40;99.90;;;;;;4978712;28;20022;-78
2024/03/13 10:05:56;;;;;;;3.55;1.77;;;11.30;99.90;;;;;;4979231;28;20027;-78
2024/03/13 10:08:23;;;;;;;2.73;1.80;;;11.40;99.90;;;;;;4995658;28;20058;-78
2024/03/13 10:10:50;;;;;;;2.45;1.65;;;11.50;99.90;;;;;;4979505;28;20121;-78
2024/03/13 10:13:17;;;;;;;2.97;1.80;;;11.50;99.90;;;;;;4978728;28;20037;-78
2024/03/13 10:15:43;;;;;;;1.80;1.42;;;11.50;99.90;;;;;;4978368;28;20045;-78
2024/03/13 10:18:18;;;;;;;2.38;1.70;;;11.50;99.90;;;;;;4978929;28;20029;-78
2024/03/13 10:20:58;;;;;;;3.15;1.67;;;11.60;99.90;;;;;;4977959;28;20034;-79
2024/03/13 10:23:26;;;;;;;2.55;1.65;;;11.60;99.90;;;;;;4995960;28;20110;-78
2024/03/13 10:25:56;;;;;;;1.75;1.45;;;11.60;99.90;;;;;;4978805;28;20118;-78
2024/03/13 10:28:23;;;;;;;3.65;1.45;;;11.70;99.90;;;;;;4995849;28;20053;-78
2024/03/13 10:30:56;;;;;;;1.85;1.42;;;11.70;99.90;;;;;;4979007;28;20018;-78
2024/03/13 10:33:22;;;;;;;1.88;1.58;;;11.90;99.90;;;;;;4978600;28;20456;-79
2024/03/13 10:35:48;;;;;;;2.58;1.42;;;11.90;99.90;;;;;;4996163;28;20050;-78
2024/03/13 10:38:14;;;;;;;1.88;1.48;;;11.90;99.90;;;;;;4978237;28;20444;-80
2024/03/13 10:40:43;;;;;;;1.90;1.50;;;12.00;99.90;;;;;;4995796;28;20048;-78
2024/03/13 10:43:12;;;;;;;1.40;1.30;;;12.00;99.90;;;;;;4978346;28;20022;-78
2024/03/13 10:45:42;;;;;;;2.78;1.65;;;12.00;99.90;;;;;;4977902;28;20102;-79
2024/03/13 10:48:11;;;;;;;2.25;1.58;;;12.00;99.90;;;;;;4977902;28;20088;-79
2024/03/13 10:50:37;;;;;;;1.98;1.35;;;12.00;99.90;;;;;;4977806;28;20455;-79
2024/03/13 10:53:05;;;;;;;1.60;1.50;;;12.00;99.90;;;;;;4978088;28;20036;-78
2024/03/13 10:55:31;;;;;;;1.95;1.30;;;12.00;99.90;;;;;;4977812;28;20022;-79
2024/03/13 10:57:57;;;;;;;2.72;1.38;;;12.10;99.90;;;;;;4977942;28;20029;-79
2024/03/13 11:00:23;;;;;;;2.60;1.75;;;12.10;99.90;;;;;;4994930;28;20336;-79
2024/03/13 11:02:52;;;;;;;2.67;1.90;;;12.10;99.90;;;;;;4978194;28;20034;-79
2024/03/13 11:05:17;;;;;;;2.08;1.70;;;12.10;99.90;;;;;;4977513;28;20026;-79
2024/03/13 11:07:45;;;;;;;3.42;2.28;;;12.30;99.90;;;;;;4977805;28;20033;-79
2024/03/13 11:10:13;;;;;;;2.75;1.80;;;12.10;99.90;;;;;;4978290;28;20029;-79
2024/03/13 11:12:45;;;;;;;4.22;2.75;;;12.10;99.90;;;;;;4994589;28;20477;-78
2024/03/13 11:15:13;;;;;;;;;;;12.10;99.90;;;;;;4995472;28;20100;-79
2024/03/13 11:17:46;;;;;;;3.00;2.28;;;12.10;99.90;;;;;;4994948;28;19977;-79
2024/03/13 11:20:20;;;;;;;3.15;2.70;;;12.20;99.90;;;;;;4977795;28;20035;-79
2024/03/13 11:22:54;;;;;;;2.83;2.35;;;12.30;99.90;;;;;;4977844;28;20026;-79
2024/03/13 11:25:22;;;;;;;3.38;2.63;;;12.40;99.90;;;;;;4977434;28;20456;-79
2024/03/13 11:27:56;;;;;;;3.55;2.70;;;12.40;99.90;;;;;;4977514;28;20034;-79
2024/03/13 11:30:24;;;;;;;4.20;2.65;;;12.50;99.90;;;;;;4994432;28;20022;-79
2024/03/13 11:32:51;;;;;;;3.45;2.42;;;12.40;99.90;;;;;;4977630;28;20053;-79
2024/03/13 11:35:18;;;;;;;3.47;2.50;;;12.30;99.90;;;;;;4994042;28;20097;-84
2024/03/13 11:37:47;;;;;;;3.42;2.58;;;12.20;99.90;;;;;;4977443;28;20117;-79
2024/03/13 11:40:15;;;;;;;4.70;3.00;;;12.20;99.90;;;;;;4977565;28;20073;-79
2024/03/13 11:42:43;;;;;;;6.40;3.15;;;12.20;99.90;;;;;;4977019;28;20120;-79
2024/03/13 11:45:15;;;;;;;4.78;2.92;;;12.10;99.90;;;;;;4978117;28;20061;-79
2024/03/13 11:47:45;;;;;;;3.63;2.95;;;12.00;99.90;;;;;;4976815;28;20027;-79
2024/03/13 11:50:11;;;;;;;5.35;3.08;;;12.10;99.90;;;;;;4994797;28;20096;-79
2024/03/13 11:52:37;;;;;;;4.40;3.20;;;12.20;99.90;;;;;;4977157;28;20485;-78
2024/03/13 11:55:20;;;;;;;5.00;3.30;;;12.10;99.90;;;;;;4977309;28;20027;-79
2024/03/13 11:57:46;;;;;;;5.03;3.13;;;12.10;99.90;;;;;;4994477;28;20019;-78
2024/03/13 12:00:23;;;;;;;4.15;3.20;;;12.10;99.90;;;;;;4976982;28;20023;-78
2024/03/13 12:02:49;;;;;;;5.32;3.20;;;12.20;99.90;;;;;;4977283;28;20080;-79
2024/03/13 12:05:32;;;;;;;5.03;3.08;;;12.30;99.90;;;;;;4976781;28;20034;-77
2024/03/13 12:08:01;;;;;;;5.20;3.03;;;12.50;99.90;;;;;;4977204;28;20117;-78
2024/03/13 12:10:27;;;;;;;5.70;3.38;;;12.50;99.90;;;;;;4976396;28;20026;-79
2024/03/13 12:12:53;;;;;;;4.90;3.45;;;12.60;99.90;;;;;;4977047;28;20489;-79
2024/03/13 12:15:21;;;;;;;5.50;3.65;;;12.70;99.90;;;;;;4994222;28;20105;-87
2024/03/13 12:17:50;;;;;;;5.93;3.28;;;12.60;99.90;;;;;;4976980;28;20033;-79
2024/03/13 12:20:25;;;;;;;6.05;3.47;;;12.70;99.90;;;;;;4976888;28;20030;-79
2024/03/13 12:22:51;;;;;;;4.50;3.22;;;12.90;99.90;;;;;;4977281;28;20076;-79
2024/03/13 12:25:20;;;;;;;6.90;3.20;;;12.90;99.90;;;;;;4994073;28;20018;-79
2024/03/13 12:27:47;;;;;;;4.45;3.20;;;12.90;99.90;;;;;;4994018;28;20019;-79
2024/03/13 12:30:14;;;;;;;4.53;3.17;;;12.90;99.90;;;;;;4976944;28;20031;-79
2024/03/13 12:32:40;;;;;;;4.57;2.90;;;12.80;99.90;;;;;;4993326;28;20472;-79
2024/03/13 12:35:10;;;;;;;4.70;2.92;;;12.70;99.90;;;;;;4976306;28;20078;-79
2024/03/13 12:37:36;;;;;;;3.58;2.75;;;12.60;99.90;;;;;;4976040;28;20451;-79
2024/03/13 12:40:08;;;;;;;5.20;2.70;;;12.50;99.90;;;;;;4994052;28;20029;-78
2024/03/13 12:42:37;;;;;;;7.50;2.65;;;12.50;99.90;;;;;;4976825;28;20455;-79
2024/03/13 12:45:04;;;;;;;3.50;2.47;;;12.50;99.90;;;;;;4980276;28;20053;-79
2024/03/13 12:47:34;;;;;;;3.65;2.55;;;12.50;99.90;;;;;;4979774;28;20061;-79
2024/03/13 12:50:00;;;;;;;3.42;2.60;;;12.60;99.90;;;;;;4980355;28;20027;-79
2024/03/13 12:52:29;;;;;;;3.45;2.60;;;12.60;99.90;;;;;;4979772;28;20165;-79
2024/03/13 12:54:56;;;;;;;4.78;2.60;;;12.70;99.90;;;;;;4997603;28;20419;-79
2024/03/13 12:57:21;;;;;;;5.35;2.63;;;12.70;99.90;;;;;;4979856;28;20026;-87
2024/03/13 12:59:51;;;;;;;3.38;2.42;;;12.60;99.90;;;;;;4980234;28;20029;-80
2024/03/13 13:02:17;;;;;;;6.03;2.63;;;12.60;99.90;;;;;;4997669;28;20109;-80
2024/03/13 13:04:44;;;;;;;4.22;2.75;;;12.60;99.90;;;;;;4997112;28;20077;-78
2024/03/13 13:07:10;;;;;;;4.68;2.50;;;12.60;99.90;;;;;;4997253;28;20054;-79
2024/03/13 13:09:36;;;;;;;3.72;2.50;;;12.60;99.90;;;;;;4979166;28;20056;-78
2024/03/13 13:12:02;;;;;;;3.88;2.22;;;12.60;99.90;;;;;;4979637;28;20057;-77